SBGR/GRU METAR and TAF weather

Enter ICAO airport designator
Station Type Date Time Source
SBGR METAR 2020/01/27 17:00 UTC NOAA

SBGR 271700Z 28005KT CAVOK 32/12 Q1014


Station Type Date Time Source
SBGR Decoded METAR 2020/01/27 17:00 UTC NOAA

Guarulhos Civ / Mil , Brazil (SBGR) 23-26S 046-28W
Jan 27, 2020 - 12:00 PM EST / 2020.01.27 1700 UTC
Wind: from the W (280 degrees) at 6 MPH (5 KT):0
Visibility: greater than 7 mile(s):0
Temperature: 89 F (32 C)
Dew Point: 53 F (12 C)
Relative Humidity: 29%
Pressure (altimeter): 29.94 in. Hg (1014 hPa)
ob: SBGR 271700Z 28005KT CAVOK 32/12 Q1014
cycle: 17

Station Type Date Time Source
SBGR TAF 2020/01/27 18:24 UTC NOAA

TAF TAF SBGR 271500Z 2718/2824 27005KT CAVOK TX32/2718Z TN19/2808Z
BECMG 2719/2721 13005KT
BECMG 2722/2724 07004KT
BECMG 2814/2816 15006KT 9999 SCT040 PROB30
TEMPO 2819/2822 SHRA SCT035 FEW045TCU
RMK PGH

Example: see airport list